createdAt,value
2019-05-21T00:01:32.811Z,100752.19
2019-05-21T00:04:02.112Z,100743.34
2019-05-21T00:06:31.814Z,100722.86
2019-05-21T00:09:01.163Z,100719.94
2019-05-21T00:11:30.449Z,100723.23
2019-05-21T00:14:00.207Z,100729.53
2019-05-21T00:16:29.566Z,100722.84
2019-05-21T00:18:58.892Z,100710.92
2019-05-21T00:21:28.545Z,100710.03
2019-05-21T00:23:57.821Z,100690.60
2019-05-21T00:26:27.163Z,100692.56
2019-05-21T00:29:32.263Z,100693.95
2019-05-21T00:32:36.810Z,100697.72
2019-05-21T00:35:51.283Z,100704.20
2019-05-21T00:38:56.113Z,100702.23
2019-05-21T00:42:04.438Z,100687.78
2019-05-21T00:44:41.338Z,100688.81
2019-05-21T00:47:12.443Z,100686.53
2019-05-21T00:49:41.946Z,100686.83
2019-05-21T00:52:11.622Z,100679.77
2019-05-21T00:54:41.043Z,100667.67
2019-05-21T00:57:10.526Z,100666.11
2019-05-21T00:59:40.047Z,100671.50
2019-05-21T01:02:09.588Z,100670.18
2019-05-21T01:04:38.860Z,100671.66
2019-05-21T01:07:08.148Z,100684.55
2019-05-21T01:09:37.832Z,100699.99
2019-05-21T01:12:07.221Z,100706.93
2019-05-21T01:14:36.497Z,100703.82
2019-05-21T01:17:06.340Z,100696.38
2019-05-21T01:19:35.674Z,100697.04
2019-05-21T01:22:04.996Z,100697.09
2019-05-21T01:24:34.524Z,100693.97
2019-05-21T01:27:03.779Z,100682.50
2019-05-21T01:29:33.100Z,100696.62
2019-05-21T01:32:02.897Z,100687.56
2019-05-21T01:34:33.022Z,100678.25
2019-05-21T01:37:02.512Z,100672.52
2019-05-21T01:39:32.065Z,100672.03
2019-05-21T01:42:01.381Z,100662.95
2019-05-21T01:44:30.696Z,100664.48
2019-05-21T01:47:00.688Z,100660.14
2019-05-21T01:49:29.961Z,100647.15
2019-05-21T01:51:59.292Z,100652.70
2019-05-21T01:54:28.843Z,100661.34
2019-05-21T01:56:58.101Z,100659.81
2019-05-21T01:59:27.450Z,100670.50
2019-05-21T02:01:57.035Z,100670.80
2019-05-21T02:04:26.306Z,100670.50
2019-05-21T02:06:55.766Z,100674.27
2019-05-21T02:09:25.723Z,100678.83
2019-05-21T02:11:55.030Z,100670.27
2019-05-21T02:14:24.417Z,100663.23
2019-05-21T02:16:54.027Z,100655.78
2019-05-21T02:19:23.304Z,100660.34
2019-05-21T02:21:52.580Z,100669.53
2019-05-21T02:24:22.402Z,100680.00
2019-05-21T02:26:51.753Z,100676.55
2019-05-21T02:29:21.175Z,100682.77
2019-05-21T02:31:50.715Z,100676.59
2019-05-21T02:34:20.085Z,100684.25
2019-05-21T02:36:49.474Z,100684.11
2019-05-21T02:39:19.271Z,100687.59
2019-05-21T02:41:48.570Z,100690.56
2019-05-21T02:44:17.874Z,100685.83
2019-05-21T02:46:47.648Z,100693.33
2019-05-21T02:49:16.947Z,100685.77
2019-05-21T02:51:46.280Z,100697.92
2019-05-21T02:54:15.758Z,100703.88
2019-05-21T02:56:45.041Z,100698.39
2019-05-21T02:59:14.379Z,100693.80
2019-05-21T03:01:59.806Z,100686.30
2019-05-21T03:04:29.081Z,100697.47
2019-05-21T03:07:17.947Z,100698.63
2019-05-21T03:09:48.459Z,100692.58
2019-05-21T03:12:17.969Z,100693.52
2019-05-21T03:14:47.634Z,100693.10
2019-05-21T03:17:16.965Z,100700.27
2019-05-21T03:19:46.245Z,100699.61
2019-05-21T03:22:16.126Z,100705.69
2019-05-21T03:24:45.492Z,100708.98
2019-05-21T03:27:14.840Z,100710.86
2019-05-21T03:29:44.272Z,100705.52
2019-05-21T03:32:13.613Z,100705.70
2019-05-21T03:34:42.878Z,100714.09
2019-05-21T03:37:12.432Z,100703.77
2019-05-21T03:39:41.781Z,100702.02
2019-05-21T03:42:11.201Z,100696.42
2019-05-21T03:44:58.328Z,100694.33
2019-05-21T03:47:11.801Z,100689.88
2019-05-21T03:49:41.167Z,100684.50
2019-05-21T03:52:11.412Z,100694.09
2019-05-21T03:54:40.721Z,100696.48
2019-05-21T03:57:10.024Z,100710.21
2019-05-21T03:59:39.716Z,100706.62
2019-05-21T04:02:09.071Z,100705.97
2019-05-21T04:04:38.353Z,100691.18
2019-05-21T04:07:08.281Z,100696.01
2019-05-21T04:09:37.615Z,100681.19
2019-05-21T04:12:06.918Z,100680.23
2019-05-21T04:14:41.808Z,100686.38
2019-05-21T04:17:22.444Z,100699.99
2019-05-21T04:19:52.013Z,100690.28
2019-05-21T04:22:21.388Z,100681.89
2019-05-21T04:24:50.751Z,100674.61
2019-05-21T04:27:20.463Z,100669.39
2019-05-21T04:29:49.753Z,100674.30
2019-05-21T04:32:19.107Z,100674.20
2019-05-21T04:34:49.054Z,100667.31
2019-05-21T04:37:18.337Z,100675.36
2019-05-21T04:39:47.664Z,100662.30
2019-05-21T04:42:17.551Z,100661.06
2019-05-21T04:44:46.818Z,100665.53
2019-05-21T04:47:16.108Z,100672.67
2019-05-21T04:49:45.786Z,100673.92
2019-05-21T04:52:15.091Z,100675.41
2019-05-21T04:54:44.387Z,100678.23
2019-05-21T04:57:14.170Z,100686.77
2019-05-21T04:59:43.461Z,100687.49
2019-05-21T05:02:12.804Z,100690.87
2019-05-21T05:04:42.319Z,100691.23
2019-05-21T05:07:26.704Z,100689.33
2019-05-21T05:09:42.748Z,100691.63
2019-05-21T05:12:12.148Z,100689.51
2019-05-21T05:14:41.474Z,100692.44
2019-05-21T05:17:11.435Z,100679.97
2019-05-21T05:19:40.869Z,100695.16
2019-05-21T05:22:10.128Z,100699.97
2019-05-21T05:24:39.480Z,100700.45
2019-05-21T05:27:08.965Z,100700.95
2019-05-21T05:29:38.222Z,100689.14
2019-05-21T05:32:07.661Z,100697.23
2019-05-21T05:34:36.962Z,100696.65
2019-05-21T05:37:06.255Z,100694.55
2019-05-21T05:39:36.037Z,100694.37
2019-05-21T05:42:05.522Z,100700.67
2019-05-21T05:44:34.776Z,100720.64
2019-05-21T05:47:04.267Z,100710.06
2019-05-21T05:49:38.708Z,100696.46
2019-05-21T05:52:08.187Z,100704.77
2019-05-21T05:54:37.481Z,100717.42
2019-05-21T05:57:06.881Z,100726.92
2019-05-21T05:59:36.300Z,100731.09
2019-05-21T06:02:05.695Z,100731.09
2019-05-21T06:04:35.079Z,100728.02
2019-05-21T06:07:04.533Z,100738.97
2019-05-21T06:09:33.793Z,100739.41
2019-05-21T06:12:03.331Z,100744.27
2019-05-21T06:14:32.620Z,100744.27
2019-05-21T06:17:02.024Z,100751.27
2019-05-21T06:19:31.598Z,100733.47
2019-05-21T06:22:01.189Z,100732.16
2019-05-21T06:24:30.532Z,100728.06
2019-05-21T06:26:59.855Z,100729.41
2019-05-21T06:29:29.331Z,100733.27
2019-05-21T06:31:58.604Z,100729.56
2019-05-21T06:34:28.122Z,100735.05
2019-05-21T06:36:57.528Z,100730.61
2019-05-21T06:39:27.027Z,100731.58
2019-05-21T06:41:56.368Z,100727.31
2019-05-21T06:44:25.998Z,100744.61
2019-05-21T06:46:55.643Z,100738.43
2019-05-21T06:49:25.368Z,100750.78
2019-05-21T06:51:55.096Z,100747.09
2019-05-21T06:54:24.360Z,100745.87
2019-05-21T06:56:53.930Z,100742.98
2019-05-21T06:59:23.764Z,100744.58
2019-05-21T07:01:53.294Z,100741.97
2019-05-21T07:04:23.311Z,100741.64
2019-05-21T07:06:53.221Z,100740.94
2019-05-21T07:09:22.580Z,100750.77
2019-05-21T07:11:51.912Z,100741.75
2019-05-21T07:14:21.729Z,100747.12
2019-05-21T07:16:51.194Z,100746.19
2019-05-21T07:19:20.571Z,100754.56
2019-05-21T07:21:50.069Z,100758.50
2019-05-21T07:24:19.828Z,100753.79
2019-05-21T07:26:49.477Z,100756.00
2019-05-21T07:29:19.491Z,100762.86
2019-05-21T07:31:48.802Z,100768.25
2019-05-21T07:34:18.328Z,100770.52
2019-05-21T07:36:47.955Z,100763.39
2019-05-21T07:39:17.264Z,100776.66
2019-05-21T07:41:46.640Z,100780.23
2019-05-21T07:44:16.108Z,100778.61
2019-05-21T07:46:45.544Z,100770.30
2019-05-21T07:49:14.886Z,100772.28
2019-05-21T07:51:44.304Z,100764.34
2019-05-21T07:54:13.678Z,100765.70
2019-05-21T07:56:42.957Z,100771.74
2019-05-21T07:59:12.796Z,100772.64
2019-05-21T08:01:42.177Z,100771.55
2019-05-21T08:04:11.502Z,100774.12
2019-05-21T08:06:41.191Z,100775.34
2019-05-21T08:09:13.900Z,100771.62
2019-05-21T08:11:42.307Z,100778.19
2019-05-21T08:14:11.652Z,100782.48
2019-05-21T08:16:41.150Z,100780.76
2019-05-21T08:19:10.947Z,100796.68
2019-05-21T08:21:40.265Z,100796.24
2019-05-21T08:24:09.600Z,100803.25
2019-05-21T08:26:39.477Z,100793.52
2019-05-21T08:29:08.886Z,100795.41
2019-05-21T08:31:38.632Z,100801.28
2019-05-21T08:34:08.628Z,100794.86
2019-05-21T08:36:37.961Z,100790.30
2019-05-21T08:39:08.307Z,100787.56
2019-05-21T08:41:37.849Z,100772.91
2019-05-21T08:44:07.288Z,100768.12
2019-05-21T08:46:36.575Z,100768.81
2019-05-21T08:49:06.301Z,100770.70
2019-05-21T08:51:35.576Z,100763.63
2019-05-21T08:54:05.070Z,100758.13
2019-05-21T08:56:34.697Z,100751.58
2019-05-21T08:59:03.969Z,100756.55
2019-05-21T09:01:33.287Z,100762.92
2019-05-21T09:04:02.729Z,100768.57
2019-05-21T09:06:32.064Z,100780.33
2019-05-21T09:09:01.399Z,100778.19
2019-05-21T09:11:31.056Z,100784.61
2019-05-21T09:14:00.399Z,100792.87
2019-05-21T09:16:29.712Z,100793.77
2019-05-21T09:18:59.704Z,100787.09
2019-05-21T09:21:28.992Z,100782.27
2019-05-21T09:23:58.316Z,100788.39
2019-05-21T09:26:27.886Z,100796.05
2019-05-21T09:28:57.169Z,100795.02
2019-05-21T09:31:26.509Z,100798.75
2019-05-21T09:33:56.235Z,100798.81
2019-05-21T09:36:25.515Z,100800.94
2019-05-21T09:38:54.859Z,100798.18
2019-05-21T09:41:24.593Z,100800.93
2019-05-21T09:43:53.874Z,100807.23
2019-05-21T09:46:23.192Z,100807.16
2019-05-21T09:48:56.038Z,100813.97
2019-05-21T09:51:23.950Z,100811.59
2019-05-21T09:53:53.396Z,100809.16
2019-05-21T09:56:35.868Z,100810.21
2019-05-21T09:59:13.845Z,100801.83
2019-05-21T10:01:47.974Z,100809.34
2019-05-21T10:04:17.283Z,100806.05
2019-05-21T10:06:46.654Z,100812.98
2019-05-21T10:09:17.628Z,100808.33
2019-05-21T10:11:46.967Z,100815.97
2019-05-21T10:14:16.227Z,100813.24
2019-05-21T10:16:45.644Z,100821.88
2019-05-21T10:19:14.982Z,100819.20
2019-05-21T10:21:44.310Z,100827.86
2019-05-21T10:24:14.095Z,100832.76
2019-05-21T10:26:43.495Z,100838.81
2019-05-21T10:29:12.870Z,100840.60
2019-05-21T10:31:42.415Z,100846.74
2019-05-21T10:34:13.482Z,100838.39
2019-05-21T10:36:43.061Z,100846.77
2019-05-21T10:39:13.012Z,100838.57
2019-05-21T10:41:45.924Z,100836.16
2019-05-21T10:44:13.797Z,100841.80
2019-05-21T10:46:43.137Z,100847.41
2019-05-21T10:49:12.461Z,100841.30
2019-05-21T10:51:41.750Z,100848.11
2019-05-21T10:54:11.277Z,100851.95
2019-05-21T10:56:47.735Z,100853.23
2019-05-21T10:59:11.708Z,100853.59
2019-05-21T11:02:15.433Z,100853.63
2019-05-21T11:05:06.400Z,100852.48
2019-05-21T11:07:35.944Z,100853.22
2019-05-21T11:10:07.352Z,100856.12
2019-05-21T11:12:37.405Z,100858.62
2019-05-21T11:15:07.643Z,100854.73
2019-05-21T11:17:49.951Z,100855.97
2019-05-21T11:20:08.538Z,100858.66
2019-05-21T11:22:37.931Z,100855.86
2019-05-21T11:25:07.501Z,100861.86
2019-05-21T11:27:36.972Z,100858.73
2019-05-21T11:30:06.730Z,100861.25
2019-05-21T11:32:35.991Z,100862.78
2019-05-21T11:35:06.185Z,100869.41
2019-05-21T11:37:35.766Z,100870.78
2019-05-21T11:40:08.380Z,100869.12
2019-05-21T11:42:36.838Z,100865.50
2019-05-21T11:45:06.715Z,100862.53
2019-05-21T11:47:36.038Z,100864.58
2019-05-21T11:50:06.053Z,100860.55
2019-05-21T11:52:35.549Z,100870.66
2019-05-21T11:55:05.096Z,100864.59
2019-05-21T11:57:34.589Z,100875.02
2019-05-21T12:00:04.459Z,100870.27
2019-05-21T12:02:33.812Z,100875.59
2019-05-21T12:05:03.117Z,100874.24
2019-05-21T12:07:32.421Z,100875.80
2019-05-21T12:10:01.783Z,100886.41
2019-05-21T12:12:31.565Z,100885.52
2019-05-21T12:15:00.942Z,100885.44
2019-05-21T12:17:30.320Z,100889.19
2019-05-21T12:19:59.735Z,100887.59
2019-05-21T12:22:29.062Z,100887.52
2019-05-21T12:24:58.529Z,100886.94
2019-05-21T12:27:28.126Z,100885.52
2019-05-21T12:29:57.438Z,100896.33
2019-05-21T12:32:26.820Z,100890.22
2019-05-21T12:34:56.542Z,100894.59
2019-05-21T12:37:26.330Z,100894.72
2019-05-21T12:39:55.637Z,100890.45
2019-05-21T12:42:27.985Z,100891.95
2019-05-21T12:44:57.337Z,100891.23
2019-05-21T12:47:26.678Z,100889.97
2019-05-21T12:49:56.659Z,100893.77
2019-05-21T12:52:26.136Z,100899.79
2019-05-21T12:54:55.456Z,100894.94
2019-05-21T12:57:24.789Z,100899.20
2019-05-21T12:59:54.255Z,100906.90
2019-05-21T13:02:23.511Z,100903.02
2019-05-21T13:04:53.172Z,100903.45
2019-05-21T13:07:22.914Z,100906.70
2019-05-21T13:09:52.410Z,100904.86
2019-05-21T13:12:22.054Z,100900.39
2019-05-21T13:14:51.567Z,100895.63
2019-05-21T13:17:20.921Z,100904.48
2019-05-21T13:19:50.539Z,100904.30
2019-05-21T13:22:19.869Z,100908.58
2019-05-21T13:24:49.395Z,100908.55
2019-05-21T13:27:19.262Z,100911.92
2019-05-21T13:29:48.602Z,100910.69
2019-05-21T13:32:18.157Z,100913.33
2019-05-21T13:34:47.578Z,100913.30
2019-05-21T13:37:17.001Z,100917.28
2019-05-21T13:39:50.007Z,100914.80
2019-05-21T13:42:17.837Z,100914.60
2019-05-21T13:44:47.927Z,100915.56
2019-05-21T13:47:17.222Z,100918.39
2019-05-21T13:49:47.294Z,100926.53
2019-05-21T13:52:16.611Z,100918.52
2019-05-21T13:54:45.948Z,100932.55
2019-05-21T13:57:15.554Z,100925.44
2019-05-21T13:59:44.914Z,100931.88
2019-05-21T14:02:16.107Z,100936.98
2019-05-21T14:04:45.529Z,100946.04
2019-05-21T14:07:15.022Z,100942.94
2019-05-21T14:09:44.388Z,100945.08
2019-05-21T14:12:14.487Z,100938.03
2019-05-21T14:14:43.920Z,100949.47
2019-05-21T14:17:13.483Z,100953.71
2019-05-21T14:19:42.973Z,100948.70
2019-05-21T14:22:12.548Z,100957.86
2019-05-21T14:24:42.715Z,100952.36
2019-05-21T14:27:12.216Z,100961.32
2019-05-21T14:29:41.507Z,100963.02
2019-05-21T14:32:11.144Z,100958.38
2019-05-21T14:34:40.520Z,100955.20
2019-05-21T14:37:09.849Z,100943.89
2019-05-21T14:39:39.359Z,100941.80
2019-05-21T14:42:09.000Z,100941.61
2019-05-21T14:44:38.329Z,100940.81
2019-05-21T14:47:07.652Z,100939.97
2019-05-21T14:49:37.022Z,100941.16
2019-05-21T14:52:06.394Z,100938.37
2019-05-21T14:54:35.823Z,100936.77
2019-05-21T14:57:10.733Z,100933.65
2019-05-21T14:59:40.319Z,100936.06
2019-05-21T15:02:09.730Z,100938.83
2019-05-21T15:04:39.568Z,100930.91
2019-05-21T15:07:09.108Z,100933.89
2019-05-21T15:09:38.402Z,100927.48
2019-05-21T15:12:07.899Z,100931.05
2019-05-21T15:14:37.788Z,100929.70
2019-05-21T15:17:07.108Z,100932.95
2019-05-21T15:19:36.516Z,100935.14
2019-05-21T15:22:06.229Z,100938.78
2019-05-21T15:24:35.824Z,100934.23
2019-05-21T15:29:33.857Z,100938.70
2019-05-21T15:32:03.139Z,100942.19
2019-05-21T15:34:32.472Z,100938.67
2019-05-21T15:37:02.215Z,100939.35
2019-05-21T15:39:31.533Z,100950.78
2019-05-21T15:42:00.849Z,100950.61
2019-05-21T15:44:30.527Z,100946.53
2019-05-21T15:46:59.863Z,100941.09
2019-05-21T15:49:36.121Z,100936.22
2019-05-21T15:52:00.286Z,100941.62
2019-05-21T15:54:29.627Z,100940.52
2019-05-21T15:56:58.979Z,100941.27
2019-05-21T15:59:29.130Z,100939.77
2019-05-21T16:01:58.403Z,100932.98
2019-05-21T16:04:27.768Z,100937.36
2019-05-21T16:06:57.119Z,100943.75
2019-05-21T16:09:26.380Z,100944.39
2019-05-21T16:11:55.689Z,100943.41
2019-05-21T16:14:25.373Z,100944.03
2019-05-21T16:16:54.695Z,100946.58
2019-05-21T16:19:24.029Z,100944.17
2019-05-21T16:21:53.604Z,100940.02
2019-05-21T16:24:22.961Z,100949.98
2019-05-21T16:26:52.250Z,100952.73
2019-05-21T16:29:22.090Z,100951.80
2019-05-21T16:31:51.560Z,100948.05
2019-05-21T16:34:20.901Z,100949.63
2019-05-21T16:36:50.618Z,100956.80
2019-05-21T16:39:22.710Z,100953.94
2019-05-21T16:41:52.470Z,100953.72
2019-05-21T16:44:21.852Z,100955.94
2019-05-21T16:46:51.275Z,100958.96
2019-05-21T16:49:21.123Z,100961.09
2019-05-21T16:51:50.638Z,100961.43
2019-05-21T16:54:19.917Z,100966.19
2019-05-21T16:56:49.281Z,100969.62
2019-05-21T16:59:18.774Z,100966.71
2019-05-21T17:01:48.096Z,100964.00
2019-05-21T17:04:18.132Z,100967.56
2019-05-21T17:06:47.501Z,100969.34
2019-05-21T17:09:17.339Z,100972.31
2019-05-21T17:11:59.073Z,100970.44
2019-05-21T17:14:18.133Z,100969.30
2019-05-21T17:16:47.464Z,100963.84
2019-05-21T17:19:16.853Z,100969.31
2019-05-21T17:21:46.206Z,100970.81
2019-05-21T17:24:16.049Z,100973.81
2019-05-21T17:26:45.976Z,100971.63
2019-05-21T17:29:15.526Z,100976.34
2019-05-21T17:31:44.956Z,100972.51
2019-05-21T17:34:14.502Z,100968.91
2019-05-21T17:36:43.856Z,100978.84
2019-05-21T17:39:13.344Z,100977.16
2019-05-21T17:41:43.139Z,100979.33
2019-05-21T17:44:12.552Z,100979.03
2019-05-21T17:46:41.953Z,100981.30
2019-05-21T17:49:11.670Z,100989.02
2019-05-21T17:51:41.024Z,100989.06
2019-05-21T17:54:10.378Z,100986.81
2019-05-21T17:56:40.696Z,100988.24
2019-05-21T17:59:10.120Z,100990.72
2019-05-21T18:01:39.479Z,100990.02
2019-05-21T18:04:09.425Z,100994.98
2019-05-21T18:06:39.110Z,100996.86
2019-05-21T18:09:12.403Z,100995.44
2019-05-21T18:11:41.958Z,100999.30
2019-05-21T18:14:11.493Z,101004.28
2019-05-21T18:16:40.919Z,100998.25
2019-05-21T18:19:10.463Z,101001.25
2019-05-21T18:21:40.790Z,101012.80
2019-05-21T18:24:10.684Z,101008.18
2019-05-21T18:26:40.065Z,101013.80
2019-05-21T18:29:09.392Z,101016.83
2019-05-21T18:31:38.867Z,101017.14
2019-05-21T18:34:08.279Z,101019.65
2019-05-21T18:36:38.156Z,101027.67
2019-05-21T18:39:08.147Z,101029.67
2019-05-21T18:41:37.816Z,101033.27
2019-05-21T18:44:07.575Z,101034.13
2019-05-21T18:46:36.828Z,101042.67
2019-05-21T18:49:06.197Z,101042.10
2019-05-21T18:51:35.650Z,101036.89
2019-05-21T18:54:05.001Z,101041.09
2019-05-21T18:56:34.552Z,101038.69
2019-05-21T18:59:04.711Z,101045.07
2019-05-21T19:01:34.052Z,101049.77
2019-05-21T19:04:03.966Z,101053.05
2019-05-21T19:06:33.586Z,101051.70
2019-05-21T19:09:03.197Z,101052.31
2019-05-21T19:11:33.065Z,101050.34
2019-05-21T19:14:02.883Z,101049.81
2019-05-21T19:16:32.159Z,101052.83
2019-05-21T19:19:01.601Z,101048.95
2019-05-21T19:21:31.032Z,101047.66
2019-05-21T19:24:00.329Z,101055.89
2019-05-21T19:26:29.760Z,101064.99
2019-05-21T19:28:59.260Z,101060.86
2019-05-21T19:31:28.532Z,101059.25
2019-05-21T19:33:58.059Z,101058.95
2019-05-21T19:36:27.494Z,101061.16
2019-05-21T19:38:56.775Z,101069.69
2019-05-21T19:41:26.156Z,101068.87
2019-05-21T19:43:55.659Z,101061.41
2019-05-21T19:46:25.007Z,101051.23
2019-05-21T19:48:54.380Z,101057.87
2019-05-21T19:51:23.782Z,101048.23
2019-05-21T19:53:53.137Z,101048.22
2019-05-21T19:56:22.724Z,101056.50
2019-05-21T19:58:52.237Z,101056.77
2019-05-21T20:01:21.707Z,101062.88
2019-05-21T20:03:51.202Z,101062.35
2019-05-21T20:06:21.298Z,101056.88
2019-05-21T20:08:50.693Z,101065.15
2019-05-21T20:11:20.468Z,101058.29
2019-05-21T20:13:49.984Z,101051.10
2019-05-21T20:16:19.933Z,101052.22
2019-05-21T20:18:49.527Z,101048.31
2019-05-21T20:21:20.244Z,101044.73
2019-05-21T20:23:49.957Z,101048.60
2019-05-21T20:26:21.970Z,101043.64
2019-05-21T20:28:51.408Z,101046.41
2019-05-21T20:31:20.916Z,101046.70
2019-05-21T20:33:52.541Z,101047.78
2019-05-21T20:36:22.261Z,101046.96
2019-05-21T20:38:52.636Z,101047.23
2019-05-21T20:41:23.946Z,101042.53
2019-05-21T20:43:59.083Z,101047.22
2019-05-21T20:46:24.308Z,101052.55
2019-05-21T20:48:54.788Z,101053.66
2019-05-21T20:51:24.338Z,101058.09
2019-05-21T20:53:53.692Z,101058.88
2019-05-21T20:56:23.358Z,101056.97
2019-05-21T20:58:53.050Z,101059.20
2019-05-21T21:01:22.549Z,101064.39
2019-05-21T21:03:52.696Z,101066.63
2019-05-21T21:06:34.810Z,101060.55
2019-05-21T21:08:54.564Z,101061.11
2019-05-21T21:11:24.317Z,101064.13
2019-05-21T21:13:54.085Z,101071.55
2019-05-21T21:16:23.860Z,101072.11
2019-05-21T21:18:53.402Z,101069.61
2019-05-21T21:21:23.257Z,101067.67
2019-05-21T21:23:56.432Z,101063.24
2019-05-21T21:26:24.216Z,101060.75
2019-05-21T21:28:53.591Z,101053.30
2019-05-21T21:31:24.025Z,101051.92
2019-05-21T21:33:53.638Z,101046.41
2019-05-21T21:36:23.012Z,101052.18
2019-05-21T21:38:53.176Z,101059.07
2019-05-21T21:41:22.954Z,101061.83
2019-05-21T21:43:52.442Z,101070.92
2019-05-21T21:46:22.323Z,101062.91
2019-05-21T21:48:51.706Z,101062.05
2019-05-21T21:51:21.703Z,101067.86
2019-05-21T21:56:20.425Z,101065.59
2019-05-21T21:58:49.910Z,101065.59
2019-05-21T22:01:43.447Z,101068.91
2019-05-21T22:04:15.952Z,101076.36
2019-05-21T22:06:47.190Z,101072.48
2019-05-21T22:09:23.703Z,101084.60
2019-05-21T22:11:55.468Z,101078.23
2019-05-21T22:14:24.976Z,101083.22
2019-05-21T22:16:54.643Z,101085.42
2019-05-21T22:19:25.107Z,101085.98
2019-05-21T22:21:55.217Z,101084.05
2019-05-21T22:24:24.793Z,101088.77
2019-05-21T22:26:54.859Z,101089.08
2019-05-21T22:29:24.355Z,101079.98
2019-05-21T22:31:53.791Z,101080.23
2019-05-21T22:34:24.096Z,101078.60
2019-05-21T22:36:53.566Z,101086.61
2019-05-21T22:39:26.440Z,101089.08
2019-05-21T22:41:56.047Z,101098.73
2019-05-21T22:44:25.318Z,101086.58
2019-05-21T22:46:54.858Z,101087.66
2019-05-21T22:49:24.872Z,101078.56
2019-05-21T22:51:54.278Z,101076.33
2019-05-21T22:54:24.327Z,101080.46
2019-05-21T22:56:53.685Z,101088.73
2019-05-21T22:59:22.966Z,101082.92
2019-05-21T23:01:54.742Z,101077.96
2019-05-21T23:04:24.481Z,101076.32
2019-05-21T23:06:54.019Z,101083.78
2019-05-21T23:09:23.641Z,101082.95
2019-05-21T23:11:53.268Z,101079.64
2019-05-21T23:14:22.868Z,101081.84
2019-05-21T23:16:52.199Z,101076.88
2019-05-21T23:19:24.375Z,101081.28
2019-05-21T23:21:54.057Z,101079.64
2019-05-21T23:24:24.802Z,101074.65
2019-05-21T23:26:55.080Z,101079.61
2019-05-21T23:29:25.022Z,101079.61
2019-05-21T23:31:54.583Z,101074.94
2019-05-21T23:34:24.129Z,101072.70
2019-05-21T23:36:53.558Z,101077.10
2019-05-21T23:39:28.537Z,101071.02
2019-05-21T23:41:57.881Z,101057.53
2019-05-21T23:44:27.157Z,101059.98
2019-05-21T23:46:56.704Z,101066.33
2019-05-21T23:49:26.033Z,101061.62
2019-05-21T23:51:55.714Z,101061.02
2019-05-21T23:54:25.221Z,101052.73
2019-05-21T23:56:55.452Z,101050.23
2019-05-21T23:59:24.992Z,101051.06
